Time;durP1;ratioP1;P1;durP2;ratioP2;P2;SDS_P1;SDS_P2;PMS_P1;PMS_P2;Temp;Humidity;BMP_temperature;BMP_pressure;BME280_temperature;BME280_humidity;BME280_pressure;Samples;Min_cycle;Max_cycle;Signal;HPM_P1;HPM_P2
2022/08/09 00:04:22;;;;;;;3.28;2.15;;;20.10;89.60;;;18.75;70.58;100559.06;10334696;28;96665;-81
2022/08/09 00:09:37;;;;;;;3.95;2.15;;;20.10;90.00;;;18.69;70.68;100563.44;10307010;28;97026;-81
2022/08/09 00:14:40;;;;;;;3.63;2.20;;;20.00;90.20;;;18.65;71.02;100570.25;10306449;28;98321;-81
2022/08/09 00:19:47;;;;;;;4.55;2.42;;;20.00;90.40;;;18.62;71.37;100560.75;10301429;28;96670;-81
2022/08/09 00:24:54;;;;;;;7.43;2.55;;;20.00;90.70;;;18.60;71.49;100552.06;10327102;28;96862;-81
2022/08/09 00:29:57;;;;;;;3.65;2.15;;;19.90;90.80;;;18.60;71.74;100562.00;10306161;28;96626;-81
2022/08/09 00:35:20;;;;;;;4.30;2.40;;;19.90;90.90;;;18.55;71.80;100554.56;10324504;28;97276;-81
2022/08/09 00:40:23;;;;;;;3.88;2.20;;;19.90;91.10;;;18.50;71.85;100558.91;10349126;28;96766;-81
2022/08/09 00:45:33;;;;;;;3.40;2.22;;;19.80;91.20;;;18.36;72.16;100560.81;10358153;28;98705;-81
2022/08/09 00:50:37;;;;;;;3.78;2.40;;;19.80;91.30;;;18.33;72.48;100564.72;10302061;28;97146;-81
2022/08/09 00:55:40;;;;;;;5.10;2.30;;;19.70;91.50;;;18.27;72.43;100562.88;10334267;28;97158;-81
2022/08/09 01:01:18;;;;;;;2.25;2.05;;;19.70;91.60;;;18.21;72.60;100563.72;10330865;28;96891;-81
2022/08/09 01:06:50;;;;;;;4.05;2.75;;;19.60;91.70;;;18.16;73.04;100566.19;10339733;28;96599;-80
2022/08/09 01:12:10;;;;;;;3.92;2.50;;;19.60;91.90;;;18.11;73.08;100574.06;10320242;28;97215;-81
2022/08/09 01:17:22;;;;;;;3.05;2.50;;;19.50;92.00;;;18.08;73.55;100559.19;10310892;28;96875;-80
2022/08/09 01:22:59;;;;;;;2.80;2.33;;;19.50;92.30;;;18.08;73.63;100550.28;10329900;28;97406;-81
2022/08/09 01:28:04;;;;;;;2.95;2.22;;;19.50;92.50;;;18.08;73.81;100552.97;10315450;28;96626;-82
2022/08/09 01:33:09;;;;;;;7.47;2.67;;;19.50;92.60;;;18.08;73.66;100542.22;10336852;28;96543;-82
2022/08/09 01:38:23;;;;;;;3.05;2.50;;;19.50;92.60;;;18.05;73.88;100537.25;10339132;28;96779;-82
2022/08/09 01:43:28;;;;;;;4.55;2.47;;;19.50;92.80;;;18.03;73.72;100539.31;10333231;28;97060;-82
2022/08/09 01:48:35;;;;;;;6.20;2.97;;;19.40;92.90;;;18.01;73.80;100539.53;10304887;28;99384;-83
2022/08/09 01:53:41;;;;;;;6.18;2.67;;;19.40;93.10;;;18.00;74.04;100534.38;10335813;28;98230;-82
2022/08/09 01:58:46;;;;;;;3.78;2.70;;;19.40;93.30;;;17.96;74.38;100522.38;10337157;28;96682;-82
2022/08/09 02:03:55;;;;;;;5.97;3.00;;;19.30;93.50;;;17.93;74.26;100518.22;10342604;28;96619;-82
2022/08/09 02:08:58;;;;;;;3.78;2.67;;;19.30;93.70;;;17.91;74.29;100518.44;10314101;28;96516;-82
2022/08/09 02:14:04;;;;;;;5.03;2.85;;;19.30;93.80;;;17.87;74.62;100522.59;10335913;28;96569;-82
2022/08/09 02:19:10;;;;;;;3.60;2.85;;;19.30;94.00;;;17.86;74.75;100534.38;10320298;28;97464;-82
2022/08/09 02:24:21;;;;;;;4.75;3.10;;;19.30;94.20;;;17.83;75.12;100521.34;10322869;28;97251;-83
2022/08/09 02:29:34;;;;;;;4.68;3.30;;;19.20;94.50;;;17.82;75.12;100529.63;10302509;28;96817;-82
2022/08/09 02:34:41;;;;;;;4.13;2.90;;;19.20;94.70;;;17.80;75.36;100529.81;10310084;28;97361;-82
2022/08/09 02:40:06;;;;;;;4.20;2.90;;;19.20;94.70;;;17.74;75.57;100522.59;10315676;28;96970;-81
2022/08/09 02:45:33;;;;;;;3.35;3.03;;;19.10;94.90;;;17.66;75.70;100525.44;10319501;28;97528;-82
2022/08/09 02:50:59;;;;;;;3.88;3.40;;;19.00;95.30;;;17.56;76.83;100511.59;10351297;28;96998;-82
2022/08/09 02:56:06;;;;;;;5.63;3.75;;;18.90;96.00;;;17.49;76.78;100514.28;10344428;28;96583;-82
2022/08/09 03:01:09;;;;;;;4.72;3.85;;;18.80;96.30;;;17.47;76.88;100507.47;10318098;28;97053;-82
2022/08/09 03:06:24;;;;;;;5.88;3.78;;;18.80;96.60;;;17.50;77.18;100523.16;10310852;28;97474;-82
2022/08/09 03:11:30;;;;;;;6.50;4.05;;;18.80;96.70;;;17.49;77.13;100521.50;10344279;28;96595;-81
2022/08/09 03:16:54;;;;;;;5.55;4.93;;;18.80;96.90;;;17.47;77.15;100520.91;10322021;28;96765;-81
2022/08/09 03:22:01;;;;;;;7.65;5.85;;;18.80;97.00;;;17.46;77.24;100516.56;10312619;28;96592;-81
2022/08/09 03:27:10;;;;;;;5.03;4.00;;;18.80;97.10;;;17.44;77.57;100513.22;10343152;28;96689;-81
2022/08/09 03:32:16;;;;;;;4.43;3.90;;;18.90;97.10;;;17.46;77.53;100519.25;10315250;28;97512;-81
2022/08/09 03:37:22;;;;;;;5.82;4.10;;;18.90;97.10;;;17.44;77.25;100530.19;10328021;28;96558;-80
2022/08/09 03:42:45;;;;;;;7.25;4.47;;;18.80;97.20;;;17.45;77.01;100521.09;10308318;28;96821;-81
2022/08/09 03:47:49;;;;;;;5.05;4.30;;;18.80;97.30;;;17.43;77.31;100519.66;10311637;28;97816;-81
2022/08/09 03:52:58;;;;;;;6.43;5.20;;;18.90;97.30;;;17.44;77.22;100514.06;10310263;28;96562;-80
2022/08/09 03:58:01;;;;;;;6.57;4.40;;;18.80;97.40;;;17.45;77.02;100521.09;10341148;28;96537;-80
2022/08/09 04:03:19;;;;;;;5.13;4.32;;;18.90;97.50;;;17.48;77.22;100514.50;10334227;28;96720;-81
2022/08/09 04:08:42;;;;;;;5.20;3.97;;;18.90;97.50;;;17.49;77.46;100524.19;10345774;28;96737;-81
2022/08/09 04:13:48;;;;;;;9.15;6.00;;;18.90;97.60;;;17.43;77.48;100519.66;10330268;28;96711;-80
2022/08/09 04:19:12;;;;;;;5.50;4.93;;;18.90;97.90;;;17.34;78.04;100519.84;10317046;28;98454;-80
2022/08/09 04:24:31;;;;;;;4.88;4.22;;;18.70;98.60;;;17.34;78.55;100522.53;10300753;28;96534;-79
2022/08/09 04:29:34;;;;;;;7.25;4.68;;;18.60;99.10;;;17.42;78.69;100531.44;10302254;28;96694;-79
2022/08/09 04:34:40;;;;;;;6.18;4.22;;;18.70;99.30;;;17.52;78.78;100537.25;10317807;28;96669;-79
2022/08/09 04:39:56;;;;;;;8.07;3.97;;;18.80;99.50;;;17.63;78.97;100534.78;10338794;28;96784;-79
2022/08/09 04:45:00;;;;;;;5.95;3.90;;;18.90;99.50;;;17.80;78.74;100543.25;10327450;28;98401;-79
2022/08/09 04:50:04;;;;;;;6.40;4.65;;;19.00;99.40;;;18.00;78.47;100545.13;10340708;28;96721;-79
2022/08/09 04:55:07;;;;;;;5.38;4.18;;;19.30;99.30;;;18.21;78.19;100536.81;10351144;28;96651;-79
2022/08/09 05:00:16;;;;;;;5.65;3.53;;;19.50;99.10;;;18.43;77.51;100540.09;10322848;28;96651;-90
2022/08/09 05:05:20;;;;;;;5.05;4.13;;;19.70;98.70;;;18.65;77.24;100537.94;10295479;28;97374;-89
2022/08/09 05:10:43;;;;;;;6.70;3.53;;;19.90;98.50;;;18.88;76.53;100543.69;10319830;28;96875;-89
2022/08/09 05:15:46;;;;;;;7.32;4.60;;;20.20;98.20;;;19.08;76.21;100553.56;10306965;28;96593;-89
2022/08/09 05:20:59;;;;;;;4.70;3.70;;;20.40;97.90;;;19.27;74.95;100541.84;10331059;28;96504;-93
2022/08/09 05:26:03;;;;;;;7.18;3.90;;;20.60;97.40;;;19.40;74.28;100541.75;10314261;28;96719;-90
2022/08/09 05:31:06;;;;;;;7.30;3.72;;;20.70;97.00;;;19.53;73.65;100546.22;10324654;28;96857;-90
2022/08/09 05:36:12;;;;;;;7.65;4.05;;;20.80;96.70;;;19.70;73.26;100549.25;10324002;28;96733;-91
2022/08/09 05:41:17;;;;;;;3.95;3.42;;;21.00;96.50;;;19.89;72.73;100550.13;10315907;28;96586;-92
2022/08/09 05:46:20;;;;;;;5.93;3.70;;;21.20;96.50;;;20.12;72.41;100555.75;10282562;28;97164;-91
2022/08/09 05:51:23;;;;;;;5.00;3.20;;;21.40;96.00;;;20.31;71.25;100562.00;10317933;28;96456;-90
2022/08/09 05:56:45;;;;;;;6.68;3.85;;;21.60;95.20;;;20.45;69.32;100563.56;10300872;28;96640;-90
2022/08/09 06:01:57;;;;;;;4.50;3.60;;;21.70;94.10;;;20.50;69.35;100550.19;10283057;28;96791;-91
2022/08/09 06:07:02;;;;;;;5.63;3.20;;;21.80;94.00;;;20.67;69.44;100558.50;10282822;28;96675;-91
2022/08/09 06:12:05;;;;;;;6.25;3.67;;;21.90;94.10;;;20.81;69.00;100559.19;10342312;28;97401;-92
2022/08/09 06:17:10;;;;;;;6.13;3.60;;;22.10;93.80;;;20.95;68.13;100552.56;10335846;28;97144;-91
2022/08/09 06:22:16;;;;;;;5.00;3.38;;;22.20;93.40;;;21.10;67.43;100549.47;10313988;28;97411;-90
2022/08/09 06:27:19;;;;;;;6.15;3.90;;;22.40;92.90;;;21.30;67.16;100551.94;10319132;28;96946;-91
2022/08/09 06:32:22;;;;;;;4.35;3.45;;;22.60;92.60;;;21.52;65.59;100557.63;10283576;28;96453;-91
2022/08/09 06:37:45;;;;;;;6.88;3.58;;;22.80;91.90;;;21.78;64.27;100559.94;10284371;28;97069;-91
2022/08/09 06:43:07;;;;;;;6.15;3.13;;;23.10;91.10;;;21.99;62.01;100553.13;10286409;28;96837;-90
2022/08/09 06:48:13;;;;;;;6.93;3.22;;;23.30;90.00;;;22.13;61.23;100557.31;10330885;28;96672;-92
2022/08/09 06:53:18;;;;;;;5.95;3.70;;;23.40;88.00;;;22.35;60.58;100551.28;10319864;28;96544;-92
2022/08/09 06:58:21;;;;;;;5.07;3.13;;;23.60;87.40;;;22.53;58.50;100550.31;10286190;28;96510;-91
2022/08/09 07:03:44;;;;;;;6.57;3.65;;;23.90;85.10;;;22.74;56.99;100554.28;10298420;28;96452;-91
2022/08/09 07:08:56;;;;;;;4.40;3.03;;;24.00;82.60;;;22.92;57.08;100546.03;10317791;28;96639;-92
2022/08/09 07:13:59;;;;;;;5.38;3.05;;;24.30;81.50;;;23.05;55.58;100556.56;10353653;28;96542;-92
2022/08/09 07:19:10;;;;;;;4.90;3.42;;;24.40;80.00;;;23.17;55.20;100551.94;10299740;28;96594;-92
2022/08/09 07:24:20;;;;;;;6.68;3.03;;;24.60;79.30;;;23.38;54.91;100552.28;10310444;28;97424;-92
2022/08/09 07:29:34;;;;;;;5.47;3.28;;;24.70;78.70;;;23.59;54.50;100546.16;10281355;28;96617;-91
2022/08/09 07:34:44;;;;;;;6.15;3.10;;;25.00;77.70;;;23.93;54.00;100543.47;10341642;28;96667;-94
2022/08/09 07:39:48;;;;;;;6.38;2.78;;;25.20;77.40;;;24.13;53.44;100541.09;10322849;28;96665;-90
2022/08/09 07:44:52;;;;;;;4.55;3.08;;;25.40;76.30;;;24.32;52.83;100543.53;10295977;28;96489;-92
2022/08/09 07:50:00;;;;;;;4.25;2.92;;;25.60;75.60;;;24.41;52.36;100533.91;10346317;28;96618;-90
2022/08/09 07:55:10;;;;;;;4.88;3.00;;;25.80;74.90;;;24.60;52.38;100535.25;10328256;28;97372;-91
2022/08/09 08:00:19;;;;;;;3.95;2.72;;;25.90;74.50;;;24.68;52.45;100542.97;10327627;28;96474;-90
2022/08/09 08:05:38;;;;;;;6.47;3.05;;;26.00;74.30;;;24.71;52.01;100545.19;10327364;28;96649;-91
2022/08/09 08:11:00;;;;;;;3.95;2.92;;;26.10;73.80;;;24.86;51.45;100541.00;10306217;28;96636;-91
2022/08/09 08:16:23;;;;;;;5.50;3.28;;;26.20;73.10;;;24.96;50.41;100546.56;10326941;28;96531;-89
2022/08/09 08:21:34;;;;;;;4.72;3.15;;;26.30;72.00;;;25.06;50.22;100546.69;10316407;28;96449;-89
2022/08/09 08:26:41;;;;;;;6.60;3.13;;;26.40;71.70;;;25.26;50.30;100529.78;10313879;28;96572;-91
2022/08/09 08:31:58;;;;;;;6.03;3.28;;;26.60;71.30;;;25.46;49.19;100535.41;10317268;28;96561;-90
2022/08/09 08:37:07;;;;;;;5.30;3.28;;;26.80;70.30;;;25.60;48.51;100538.50;10323326;28;96648;-90
2022/08/09 08:42:20;;;;;;;5.30;3.08;;;26.90;69.10;;;25.71;47.58;100526.63;10323902;28;96698;-91
2022/08/09 08:47:33;;;;;;;4.65;2.88;;;27.10;68.50;;;25.75;47.19;100538.69;10325711;28;96626;-92
2022/08/09 08:52:45;;;;;;;4.30;3.10;;;27.20;67.70;;;25.86;47.11;100531.44;10341045;28;96620;-90
2022/08/09 08:58:02;;;;;;;3.33;3.00;;;27.30;67.50;;;25.95;45.61;100529.84;10319290;28;96556;-90
2022/08/09 09:03:13;;;;;;;4.68;3.05;;;27.30;65.80;;;26.00;45.90;100518.16;10323819;28;96650;-91
2022/08/09 09:08:27;;;;;;;4.43;3.15;;;27.50;65.50;;;26.17;46.08;100524.28;10340561;28;97281;-89
2022/08/09 09:13:39;;;;;;;6.20;3.10;;;27.50;65.60;;;26.36;45.63;100517.28;10310708;28;98317;-91
2022/08/09 09:19:02;;;;;;;4.85;2.97;;;27.70;65.20;;;26.57;45.30;100511.97;10289011;28;96756;-91
2022/08/09 09:24:33;;;;;;;4.15;2.60;;;27.90;64.60;;;26.68;44.28;100514.47;10315380;28;96660;-92
2022/08/09 09:29:43;;;;;;;4.13;2.70;;;28.10;63.50;;;26.71;44.23;100521.31;10298877;28;96537;-90
2022/08/09 09:35:09;;;;;;;3.85;2.60;;;28.10;63.20;;;26.97;44.06;100516.75;10307454;28;96494;-90
2022/08/09 09:40:15;;;;;;;3.92;2.50;;;28.30;63.10;;;27.22;43.42;100513.28;10324080;28;96701;-91
2022/08/09 09:45:19;;;;;;;6.35;2.90;;;28.50;62.40;;;27.34;42.43;100510.28;10330025;28;96552;-89
2022/08/09 09:50:44;;;;;;;3.80;2.38;;;28.70;61.30;;;27.53;42.24;100511.41;10317749;28;96549;-89
2022/08/09 09:56:01;;;;;;;3.95;2.78;;;28.90;61.00;;;27.70;41.89;100513.88;10283098;28;96541;-91
2022/08/09 10:01:21;;;;;;;3.85;2.80;;;29.10;60.40;;;27.90;40.47;100508.41;10337046;28;96493;-91
2022/08/09 10:06:45;;;;;;;3.63;2.58;;;29.30;59.10;;;28.06;41.32;100503.72;10325108;28;96510;-90
2022/08/09 10:12:00;;;;;;;4.68;2.80;;;29.40;59.60;;;28.11;41.17;100498.25;10297301;28;96599;-88
2022/08/09 10:17:23;;;;;;;3.47;2.50;;;29.50;59.10;;;28.24;40.17;100502.31;10322629;28;98252;-91
2022/08/09 10:22:52;;;;;;;3.35;2.33;;;29.60;58.70;;;28.50;40.17;100492.97;10296480;28;96539;-89
2022/08/09 10:28:02;;;;;;;3.42;2.50;;;29.80;58.60;;;28.46;40.15;100483.69;10350044;28;98633;-89
2022/08/09 10:33:05;;;;;;;4.35;2.72;;;29.90;57.70;;;28.53;39.59;100472.44;10326328;28;97538;-88
2022/08/09 10:38:11;;;;;;;3.05;2.40;;;30.10;57.30;;;28.71;39.37;100480.00;10297611;28;97625;-89
2022/08/09 10:43:36;;;;;;;3.55;2.22;;;30.10;57.10;;;29.04;38.73;100478.50;10338323;28;96454;-90
2022/08/09 10:49:33;;;;;;;2.60;2.10;;;30.50;56.80;;;28.93;37.55;100487.03;10321991;28;96637;-88
2022/08/09 10:55:20;;;;;;;3.42;2.20;;;30.40;55.40;;;28.89;37.55;100470.34;10322665;28;97511;-88
2022/08/09 11:00:28;;;;;;;2.97;2.45;;;30.50;55.40;;;29.00;38.01;100471.94;10285423;28;96435;-89
2022/08/09 11:05:31;;;;;;;4.10;2.15;;;30.50;55.40;;;29.17;37.81;100470.75;10297186;28;96608;-87
2022/08/09 11:10:40;;;;;;;2.80;2.22;;;30.60;55.50;;;29.36;37.90;100468.94;10336941;28;96613;-89
2022/08/09 11:16:39;;;;;;;2.88;2.20;;;30.80;55.20;;;29.52;37.31;100458.72;10338397;28;96623;-89
2022/08/09 11:21:51;;;;;;;2.95;2.60;;;30.90;54.10;;;29.39;37.90;100462.91;10310114;28;96796;-89
2022/08/09 11:27:47;;;;;;;3.10;2.15;;;30.80;54.80;;;29.25;37.54;100453.69;10301106;28;96954;-84
2022/08/09 11:33:16;;;;;;;3.97;2.28;;;30.60;54.80;;;29.02;37.87;100458.78;10332771;28;96674;-84
2022/08/09 11:38:28;;;;;;;2.78;2.30;;;30.50;54.80;;;28.87;37.77;100456.13;10340560;28;96622;-84
2022/08/09 11:43:45;;;;;;;3.10;2.22;;;30.30;55.10;;;28.74;38.45;100462.25;10330302;28;98682;-84
2022/08/09 11:48:56;;;;;;;4.03;2.60;;;30.10;55.50;;;28.57;38.57;100457.13;10339000;28;96637;-84
2022/08/09 11:54:15;;;;;;;3.90;2.45;;;30.00;55.20;;;28.48;38.75;100458.78;10344496;28;97188;-84
2022/08/09 11:59:35;;;;;;;5.15;2.80;;;30.00;55.50;;;28.41;38.88;100458.28;10334853;28;96501;-85
2022/08/09 12:04:40;;;;;;;3.53;2.47;;;29.80;55.60;;;28.39;39.73;100452.28;10340051;28;96738;-83
2022/08/09 12:09:44;;;;;;;4.90;2.58;;;29.80;56.10;;;28.37;38.79;100452.59;10341711;28;97098;-85
2022/08/09 12:14:53;;;;;;;3.20;2.70;;;29.80;55.60;;;28.31;38.89;100448.22;10315970;28;96680;-89
2022/08/09 12:20:21;;;;;;;3.78;2.15;;;29.70;55.50;;;28.37;39.21;100447.13;10338867;28;96663;-85
2022/08/09 12:25:27;;;;;;;4.18;2.63;;;29.70;56.20;;;28.35;38.93;100443.00;10318563;28;98072;-85
2022/08/09 12:30:40;;;;;;;3.45;2.50;;;29.70;55.90;;;28.39;39.27;100439.44;10301609;28;97672;-84
2022/08/09 12:35:44;;;;;;;4.78;2.50;;;29.70;55.80;;;28.43;39.47;100440.53;10344067;28;96852;-84
2022/08/09 12:40:50;;;;;;;3.05;2.47;;;29.80;55.80;;;28.40;38.56;100432.06;10324178;28;96663;-84
2022/08/09 12:45:56;;;;;;;2.83;2.20;;;29.70;55.50;;;28.37;38.51;100425.25;10302941;28;96754;-84
2022/08/09 12:51:03;;;;;;;5.47;2.40;;;29.70;55.00;;;28.34;39.18;100425.81;10308198;28;96755;-84
2022/08/09 12:56:19;;;;;;;4.68;2.97;;;29.60;55.60;;;28.28;39.07;100424.97;10323915;28;96603;-84
2022/08/09 13:01:59;;;;;;;4.70;3.00;;;29.50;55.80;;;28.28;39.26;100418.69;10322540;28;96661;-83
2022/08/09 13:07:30;;;;;;;3.38;2.50;;;29.50;55.70;;;28.27;39.80;100422.53;10340026;28;96922;-88
2022/08/09 13:12:53;;;;;;;;;;;29.50;56.10;;;28.26;39.37;100415.44;10334319;28;96703;-85
2022/08/09 13:18:11;;;;;;;3.95;2.80;;;29.50;55.60;;;28.22;39.26;100417.91;10308798;28;96702;-85
2022/08/09 13:23:20;;;;;;;4.45;2.88;;;29.60;55.80;;;28.17;39.21;100409.72;10308562;28;96614;-84
2022/08/09 13:29:23;;;;;;;5.20;3.05;;;29.50;55.50;;;28.31;39.43;100414.56;10319657;28;96738;-84
2022/08/09 13:34:46;;;;;;;6.13;2.58;;;29.70;55.90;;;28.47;39.27;100413.44;10335874;28;97174;-84
2022/08/09 13:39:49;;;;;;;3.45;2.80;;;29.80;55.70;;;28.53;38.97;100415.84;10325555;28;97104;-84
2022/08/09 13:45:14;;;;;;;3.28;2.65;;;30.00;55.40;;;28.66;39.09;100403.47;10324223;28;96673;-84
2022/08/09 13:50:19;;;;;;;2.78;2.38;;;30.10;55.40;;;28.87;38.05;100406.09;10297526;28;96762;-83
2022/08/09 13:55:33;;;;;;;4.82;2.97;;;30.30;55.00;;;29.02;37.74;100398.59;10315629;28;96597;-83
2022/08/09 14:00:38;;;;;;;4.00;2.90;;;30.40;54.70;;;28.99;37.45;100404.66;10313544;28;96955;-84
2022/08/09 14:05:52;;;;;;;4.40;2.88;;;30.40;54.00;;;28.99;38.12;100393.72;10310917;28;96950;-84
2022/08/09 14:11:01;;;;;;;5.38;2.90;;;30.40;54.90;;;29.05;37.63;100399.97;10319019;28;97127;-84
2022/08/09 14:16:16;;;;;;;3.83;2.80;;;30.40;54.20;;;28.87;37.12;100403.34;10325746;28;96673;-84
2022/08/09 14:21:22;;;;;;;3.58;2.80;;;30.30;53.60;;;28.75;37.17;100410.00;10306004;28;96784;-84
2022/08/09 14:26:28;;;;;;;3.28;2.80;;;30.20;53.70;;;28.61;37.28;100408.16;10313104;28;97584;-84
2022/08/09 14:31:35;;;;;;;2.72;2.40;;;30.00;53.50;;;28.60;37.22;100392.84;10317261;28;97369;-84
2022/08/09 14:36:51;;;;;;;2.88;2.58;;;30.00;53.40;;;28.67;37.40;100399.66;10325737;28;96836;-84
2022/08/09 14:41:55;;;;;;;4.43;2.65;;;30.00;53.40;;;28.74;36.79;100399.34;10307604;28;97348;-85
2022/08/09 14:46:58;;;;;;;5.85;2.90;;;30.10;53.20;;;28.72;36.82;100399.59;10324369;28;96732;-84
2022/08/09 14:52:18;;;;;;;3.75;2.95;;;30.10;53.20;;;28.72;37.82;100398.78;10325223;28;97802;-85
2022/08/09 14:57:21;;;;;;;5.15;3.50;;;30.10;53.60;;;28.68;37.85;100397.75;10308576;28;96688;-83
2022/08/09 15:02:44;;;;;;;4.03;2.90;;;30.10;53.60;;;28.62;37.74;100394.22;10335317;28;96642;-83
2022/08/09 15:07:49;;;;;;;2.88;2.53;;;30.00;54.00;;;28.58;37.73;100390.41;10365373;28;97061;-84
2022/08/09 15:13:00;;;;;;;3.88;2.90;;;30.00;53.70;;;28.59;37.21;100383.84;10341229;28;97211;-83
2022/08/09 15:18:05;;;;;;;3.17;2.40;;;30.00;53.50;;;28.54;37.36;100387.41;10340739;28;96654;-84
2022/08/09 15:23:10;;;;;;;3.92;2.88;;;30.00;53.40;;;28.53;37.31;100379.50;10311134;28;96560;-85
2022/08/09 15:28:33;;;;;;;2.50;2.30;;;30.00;53.30;;;28.65;37.68;100377.22;10306305;28;96856;-87
2022/08/09 15:33:36;;;;;;;3.33;2.63;;;30.00;53.90;;;28.79;37.51;100372.78;10344089;28;96618;-87
2022/08/09 15:38:59;;;;;;;3.72;2.70;;;30.10;53.50;;;29.11;37.02;100370.66;10339770;28;98386;-85
2022/08/09 15:44:02;;;;;;;4.88;2.50;;;30.40;53.60;;;29.40;36.43;100376.13;10342341;28;96728;-86
2022/08/09 15:49:06;;;;;;;4.15;2.60;;;30.70;53.10;;;29.44;36.04;100372.50;10343590;28;96674;-89
2022/08/09 15:54:25;;;;;;;4.38;2.15;;;30.80;52.60;;;29.22;36.09;100372.19;10347137;28;96693;-87
2022/08/09 15:59:36;;;;;;;4.03;2.30;;;30.60;52.20;;;29.01;36.53;100368.81;10334106;28;96586;-86
2022/08/09 16:04:39;;;;;;;2.97;2.67;;;30.40;52.50;;;28.95;37.36;100378.16;10323787;28;96719;-85
2022/08/09 16:09:44;;;;;;;2.60;2.40;;;30.40;52.80;;;28.84;36.53;100380.09;10326221;28;96495;-87
2022/08/09 16:15:08;;;;;;;4.55;2.38;;;30.30;52.60;;;28.76;36.02;100378.81;10334869;28;96566;-87
2022/08/09 16:20:31;;;;;;;2.90;1.95;;;30.20;52.30;;;28.90;36.19;100378.97;10321430;28;96689;-88
2022/08/09 16:25:35;;;;;;;2.90;2.08;;;30.30;52.20;;;29.01;36.19;100379.75;10312398;28;98262;-90
2022/08/09 16:30:42;;;;;;;3.35;2.28;;;30.40;52.10;;;28.93;36.74;100372.97;10343996;28;98076;-88
2022/08/09 16:35:55;;;;;;;3.25;2.42;;;30.40;52.30;;;28.86;36.58;100383.41;10318640;28;97153;-88
2022/08/09 16:41:06;;;;;;;2.25;1.90;;;30.30;52.30;;;28.78;36.88;100386.72;10353036;28;96743;-88
2022/08/09 16:46:18;;;;;;;30.35;7.57;;;30.30;52.30;;;28.64;36.84;100385.72;10340269;28;97450;-89
2022/08/09 16:51:23;;;;;;;3.65;2.58;;;30.10;52.80;;;28.48;37.03;100395.94;10335185;28;97388;-89
2022/08/09 16:56:26;;;;;;;4.18;2.33;;;30.00;52.90;;;28.36;37.47;100399.00;10338253;28;96730;-89
2022/08/09 17:01:33;;;;;;;4.22;2.42;;;29.80;53.10;;;28.23;37.79;100402.31;10321509;28;96755;-90
2022/08/09 17:06:37;;;;;;;6.97;2.30;;;29.60;53.50;;;28.11;38.36;100401.81;10311883;28;96730;-91
2022/08/09 17:12:00;;;;;;;3.35;2.25;;;29.50;54.00;;;27.99;38.96;100397.47;10339810;28;98229;-90
2022/08/09 17:17:08;;;;;;;3.55;2.20;;;29.30;54.20;;;27.86;39.16;100392.63;10305654;28;96468;-91
2022/08/09 17:22:29;;;;;;;20.35;3.83;;;29.20;54.40;;;27.74;39.15;100395.66;10344539;28;98403;-90
2022/08/09 17:27:34;;;;;;;31.60;3.35;;;29.00;54.70;;;27.61;39.65;100395.38;10337181;28;96973;-90
2022/08/09 17:32:40;;;;;;;24.15;3.10;;;28.90;55.10;;;27.44;40.00;100396.50;10335385;28;97393;-93
2022/08/09 17:37:48;;;;;;;10.35;3.33;;;28.70;55.20;;;27.29;40.44;100401.13;10332350;28;96617;-91
2022/08/09 17:43:11;;;;;;;6.63;2.58;;;28.60;55.60;;;27.11;40.34;100410.69;10363489;28;96773;-92
2022/08/09 17:48:38;;;;;;;11.30;3.72;;;28.40;55.90;;;26.89;40.99;100410.94;10338776;28;96659;-92
2022/08/09 17:53:42;;;;;;;6.97;2.55;;;28.20;56.60;;;26.69;41.69;100425.34;10299159;28;96623;-92
2022/08/09 17:59:00;;;;;;;8.73;3.20;;;27.90;57.10;;;26.50;42.54;100437.81;10305552;28;96838;-92
2022/08/09 18:04:05;;;;;;;39.03;4.03;;;27.80;57.40;;;26.31;42.76;100440.16;10361830;28;96561;-92
2022/08/09 18:09:10;;;;;;;5.45;2.88;;;27.60;57.80;;;26.15;42.50;100447.47;10312933;28;97541;-92
2022/08/09 18:14:19;;;;;;;5.88;2.90;;;27.40;57.60;;;26.03;42.44;100460.44;10366241;28;96705;-91
2022/08/09 18:19:22;;;;;;;11.75;2.90;;;27.30;57.70;;;25.87;43.37;100471.25;10364481;28;96659;-93
2022/08/09 18:24:45;;;;;;;9.68;2.60;;;27.20;58.10;;;25.75;43.32;100475.25;10310269;28;96632;-90
2022/08/09 18:29:48;;;;;;;13.07;2.63;;;27.00;58.10;;;25.62;43.44;100484.66;10310763;28;96727;-92
2022/08/09 18:35:11;;;;;;;4.38;2.10;;;26.90;58.30;;;25.55;42.67;100506.66;10330740;28;97135;-89
2022/08/09 18:40:17;;;;;;;4.28;2.15;;;26.90;57.60;;;25.51;42.76;100521.03;10336964;28;96626;-92
2022/08/09 18:45:28;;;;;;;4.38;2.00;;;26.80;57.80;;;25.43;41.78;100529.66;10336693;28;96661;-91
2022/08/09 18:50:52;;;;;;;3.47;1.83;;;26.70;56.70;;;25.37;41.25;100542.41;10355381;28;96606;-91
2022/08/09 18:55:55;;;;;;;4.82;1.58;;;26.70;56.30;;;25.33;40.75;100558.41;10332647;28;97400;-90
2022/08/09 19:01:07;;;;;;;2.78;1.50;;;26.60;55.40;;;25.31;39.80;100576.91;10332939;28;96574;-88
2022/08/09 19:06:11;;;;;;;3.80;1.30;;;26.60;54.80;;;25.25;38.62;100580.63;10315446;28;96709;-87
2022/08/09 19:11:16;;;;;;;2.55;1.20;;;26.50;53.60;;;25.20;38.08;100593.34;10328058;28;99103;-93
2022/08/09 19:16:24;;;;;;;7.57;1.50;;;26.40;53.10;;;25.08;37.61;100596.22;10331587;28;97031;-87
2022/08/09 19:21:38;;;;;;;2.58;1.13;;;26.30;52.50;;;24.98;37.12;100605.03;10333244;28;96670;-90
2022/08/09 19:27:01;;;;;;;3.70;1.00;;;26.20;52.10;;;24.82;37.14;100598.56;10311509;28;97283;-89
2022/08/09 19:32:06;;;;;;;2.53;1.05;;;26.10;52.00;;;24.73;37.09;100624.56;10334527;28;96581;-87
2022/08/09 19:37:10;;;;;;;3.85;0.93;;;26.00;51.80;;;24.65;37.24;100632.28;10327109;28;96624;-84
2022/08/09 19:42:19;;;;;;;1.38;1.00;;;25.90;51.90;;;24.55;36.84;100639.25;10318243;28;98405;-86
2022/08/09 19:47:29;;;;;;;4.63;1.30;;;25.80;51.50;;;24.33;36.51;100641.03;10332259;28;96823;-85
2022/08/09 19:52:40;;;;;;;1.05;0.90;;;25.70;50.80;;;24.20;36.81;100641.38;10318196;28;96743;-85
2022/08/09 19:57:54;;;;;;;5.63;1.27;;;25.50;51.00;;;24.06;36.84;100642.78;10331145;28;98094;-85
2022/08/09 20:02:57;;;;;;;2.72;0.80;;;25.30;50.90;;;23.97;37.22;100642.34;10334363;28;97302;-84
2022/08/09 20:08:20;;;;;;;1.73;0.90;;;25.20;51.20;;;23.83;37.10;100641.84;10315732;28;97290;-85
2022/08/09 20:13:35;;;;;;;2.80;0.98;;;25.10;51.20;;;23.73;37.60;100650.63;10314259;28;96654;-85
2022/08/09 20:18:40;;;;;;;3.50;1.15;;;25.00;51.40;;;23.62;37.75;100662.34;10349810;28;97126;-85
2022/08/09 20:24:03;;;;;;;3.53;0.75;;;24.90;51.60;;;23.54;37.91;100670.84;10321176;28;96707;-85
2022/08/09 20:29:06;;;;;;;3.53;0.90;;;24.80;51.80;;;23.44;38.27;100671.47;10311952;28;98248;-85
2022/08/09 20:34:20;;;;;;;2.15;0.82;;;24.80;52.10;;;23.36;38.50;100680.00;10333905;28;97447;-84
2022/08/09 20:39:24;;;;;;;1.98;0.75;;;24.70;52.30;;;23.28;38.72;100679.56;10335253;28;96540;-85
2022/08/09 20:44:47;;;;;;;1.30;0.90;;;24.60;52.30;;;23.22;38.51;100682.16;10318713;28;96625;-86
2022/08/09 20:50:10;;;;;;;2.20;0.80;;;24.50;52.30;;;23.15;38.73;100678.78;10330899;28;97598;-89
2022/08/09 20:55:33;;;;;;;1.00;0.77;;;24.50;52.30;;;23.08;38.64;100680.75;10339621;28;96763;-84
2022/08/09 21:00:56;;;;;;;2.10;0.73;;;24.40;52.40;;;23.02;38.90;100684.44;10324116;28;98296;-87
2022/08/09 21:06:19;;;;;;;1.40;0.80;;;24.30;52.40;;;22.95;39.27;100684.56;10327207;28;96753;-87
2022/08/09 21:11:24;;;;;;;6.18;0.70;;;24.30;52.70;;;22.99;39.56;100689.53;10315909;28;96528;-87
2022/08/09 21:16:47;;;;;;;1.45;0.70;;;24.30;53.00;;;22.99;40.24;100695.75;10324303;28;96687;-87
2022/08/09 21:21:50;;;;;;;2.70;0.77;;;24.30;53.50;;;22.93;40.17;100702.94;10308827;28;96725;-87
2022/08/09 21:27:00;;;;;;;1.52;0.98;;;24.30;53.70;;;22.89;40.31;100706.38;10340663;28;97070;-87